• Join FlightAware (Why Join?)
  • Login
  • US Flag 
02:16PM EDT


 

Airport Tracker/Info


-or-


 

Live Flight TrackerFlight Track Log ✈ BAW228 ✈ 11-May-2013 ✈ KBWI - EGLL / LHR

Flight Track Log - Related Links

Times and Time Zones

All times are in EDT time to prevent confusion due to time zone crossing. See the BAW228 flight status page for this flight to view local times or setup timezone preferences in your user account.

Time Position Orientation Groundspeed Altitude Reporting Facility
EDT Latitude Longitude Course Direction KTS MPH feet Rate Location/Type
10:27PM 39.1610 -76.7660 202° Southwest 210 242 3,500  Level FlightAware
10:27PM 39.1510 -76.7690 193° South 216 249 3,800 2,400 Climbing FlightAware
10:27PM 39.1300 -76.7620 166° South 235 270 4,500 2,220 Climbing FlightAware
10:27PM 39.1190 -76.7460 132° Southeast 238 274 5,100 1,980 Climbing FlightAware
10:27PM 39.1140 -76.7250 107° East 251 289 5,500 1,020 Climbing FlightAware
10:28PM 39.1170 -76.7060 78° East 254 292 5,700 1,500 Climbing FlightAware
10:28PM 39.1250 -76.6420 81° East 289 333 6,900 2,520 Climbing FlightAware
10:29PM 39.1273 -76.6016 86° East 7,900 3,420 Climbing FlightAware ADS-B
10:29PM 39.1277 -76.5946 86° East 297 342 8,100 2,520 Climbing FlightAware ADS-B
10:29PM 39.1299 -76.5644 85° East 301 346 8,800 2,580 Climbing FlightAware ADS-B
10:29PM 39.1320 -76.5355 85° East 305 351 9,500 2,460 Climbing FlightAware ADS-B
10:30PM 39.1358 -76.4802 85° East 316 364 10,700 1,740 Climbing FlightAware ADS-B
10:30PM 39.1397 -76.4209 85° East 347 399 11,300 1,260 Climbing FlightAware ADS-B
10:31PM 39.1439 -76.3543 85° East 375 432 12,000 1,260 Climbing FlightAware ADS-B
10:31PM 39.1484 -76.2846 85° East 402 463 12,600 1,680 Climbing FlightAware ADS-B
10:32PM 39.1539 -76.2116 84° East 413 475 13,700 2,760 Climbing FlightAware ADS-B
10:32PM 39.1609 -76.1401 83° East 405 466 15,400 2,820 Climbing FlightAware ADS-B
10:33PM 39.1683 -76.0655 83° East 408 470 16,600 2,400 Climbing FlightAware ADS-B
10:33PM 39.1753 -75.9933 83° East 407 468 17,900 2,340 Climbing FlightAware ADS-B
10:33PM 39.1778 -75.9668 83° East 410 472 18,200 2,040 Climbing FlightAware ADS-B
10:34PM 39.1845 -75.9235 79° East 411 473 18,900 2,280 Climbing FlightAware ADS-B
10:34PM 39.1893 -75.9024 74° East 413 475 19,200 1,860 Climbing FlightAware ADS-B
10:34PM 39.1948 -75.8865 66° East 415 478 19,400 1,860 Climbing FlightAware ADS-B
10:34PM 39.2028 -75.8695 59° Northeast 416 479 19,700 1,980 Climbing FlightAware ADS-B
10:34PM 39.2114 -75.8553 52° Northeast 418 481 19,900 1,980 Climbing FlightAware ADS-B
10:34PM 39.2210 -75.8403 50° Northeast 418 481 20,200 1,860 Climbing FlightAware ADS-B
10:35PM 39.2627 -75.7867 45° Northeast 424 488 21,100 1,800 Climbing FlightAware ADS-B
10:35PM 39.3052 -75.7328 44° Northeast 433 498 22,000 1,560 Climbing FlightAware ADS-B
10:36PM 39.3486 -75.6751 46° Northeast 445 512 22,700 1,440 Climbing FlightAware ADS-B
10:36PM 39.3937 -75.6178 44° Northeast 455 524 23,500 1,560 Climbing FlightAware ADS-B
10:37PM 39.4390 -75.5597 45° Northeast 462 532 24,300 1,560 Climbing FlightAware ADS-B
10:37PM 39.4854 -75.4985 46° Northeast 471 542 25,100 1,440 Climbing FlightAware ADS-B
10:38PM 39.5320 -75.4377 45° Northeast 479 551 25,800 1,500 Climbing FlightAware ADS-B
10:38PM 39.5792 -75.3759 45° Northeast 487 560 26,600 1,560 Climbing FlightAware ADS-B
10:39PM 39.6038 -75.3426 46° Northeast 489 563 27,000 1,260 Climbing FlightAware ADS-B
10:39PM 39.6528 -75.2792 45° Northeast 499 574 27,600 1,140 Climbing FlightAware ADS-B
10:40PM 39.6927 -75.2234 47° Northeast 508 585 28,100 1,260 Climbing FlightAware ADS-B
10:40PM 39.7419 -75.1526 48° Northeast 515 593 28,800 1,260 Climbing FlightAware ADS-B
10:41PM 39.7902 -75.0811 49° Northeast 520 598 29,400 1,320 Climbing FlightAware ADS-B
10:41PM 39.8433 -75.0069 47° Northeast 524 603 30,200 1,260 Climbing FlightAware ADS-B
10:42PM 39.8946 -74.9343 47° Northeast 531 611 30,800 1,080 Climbing FlightAware ADS-B
10:42PM 39.9455 -74.8633 47° Northeast 539 620 31,300 1,200 Climbing FlightAware ADS-B
10:43PM 39.9968 -74.7914 47° Northeast 542 624 32,000 1,440 Climbing FlightAware ADS-B
10:43PM 40.0483 -74.7170 48° Northeast 539 620 32,800 1,260 Climbing FlightAware ADS-B
10:44PM 40.0998 -74.6448 47° Northeast 543 625 33,300 960 Climbing FlightAware ADS-B
10:44PM 40.1506 -74.5716 48° Northeast 545 627 33,800 960 Climbing FlightAware ADS-B
10:45PM 40.2009 -74.4972 48° Northeast 549 632 34,300 780 Climbing FlightAware ADS-B
10:45PM 40.2449 -74.4250 51° Northeast 552 635 34,600 720 Climbing FlightAware ADS-B
10:45PM 40.2495 -74.4171 53° Northeast 553 636 34,700 720 Climbing FlightAware ADS-B
10:46PM 40.2976 -74.3379 51° Northeast 556 640 35,000 300 Climbing FlightAware ADS-B
10:46PM 40.3456 -74.2583 52° Northeast 555 639 35,000  Level FlightAware ADS-B
10:47PM 40.3931 -74.1767 53° Northeast 547 629 35,000  Level FlightAware ADS-B
10:47PM 40.4405 -74.0959 52° Northeast 544 626 35,000  Level FlightAware ADS-B
10:48PM 40.4869 -74.0178 52° Northeast 543 625 35,000  Level FlightAware ADS-B
10:48PM 40.5332 -73.9398 52° Northeast 541 623 35,000  Level FlightAware ADS-B
10:49PM 40.5796 -73.8621 52° Northeast 540 621 35,000  Level FlightAware ADS-B
10:49PM 40.6139 -73.8055 51° Northeast 538 619 35,000  Level FlightAware ADS-B
10:50PM 40.6583 -73.7358 50° Northeast 534 615 35,000  Level FlightAware ADS-B
10:50PM 40.7087 -73.6640 47° Northeast 533 613 35,000  Level FlightAware ADS-B
10:51PM 40.7591 -73.5928 47° Northeast 532 612 35,000  Level FlightAware ADS-B
10:51PM 40.8100 -73.5214 47° Northeast 531 611 35,000  Level FlightAware ADS-B
10:52PM 40.8614 -73.4474 47° Northeast 536 617 35,000  Level FlightAware ADS-B
10:52PM 40.9123 -73.3750 47° Northeast 541 623 35,000  Level FlightAware ADS-B
10:53PM 40.9641 -73.2995 48° Northeast 543 625 35,000  Level FlightAware ADS-B
10:53PM 40.9968 -73.2536 47° Northeast 541 623 35,000  Level FlightAware ADS-B
10:53PM 41.0549 -73.1865 41° Northeast 537 618 35,000  Level FlightAware ADS-B
10:54PM 41.1140 -73.1209 40° Northeast 535 616 35,000  Level FlightAware ADS-B
10:55PM 41.1723 -73.0551 40° Northeast 532 612 35,000  Level FlightAware ADS-B
10:55PM 41.2297 -72.9889 41° Northeast 529 609 35,000  Level FlightAware ADS-B
10:56PM 41.2853 -72.9250 41° Northeast 526 605 35,000  Level FlightAware ADS-B
10:56PM 41.3410 -72.8588 42° Northeast 523 602 35,000  Level FlightAware ADS-B
10:57PM 41.3966 -72.7929 42° Northeast 521 600 35,000  Level FlightAware ADS-B
10:57PM 41.4532 -72.7270 41° Northeast 519 597 35,000  Level FlightAware ADS-B
10:58PM 41.5102 -72.6589 42° Northeast 519 597 35,000  Level FlightAware ADS-B
10:58PM 41.5790 -72.5780 41° Northeast 520 598 35,000  Level FlightAware
10:59PM 41.6749 -72.4620 42° Northeast 521 600 35,000  Level FlightAware ADS-B
11:00PM 41.7480 -72.3740 42° Northeast 521 600 35,000  Level FlightAware
11:01PM 41.8190 -72.2900 41° Northeast 521 600 35,000  Level FlightAware
11:01PM 41.8950 -72.1990 42° Northeast 521 600 35,000  Level FlightAware
11:02PM 41.9640 -72.1170 41° Northeast 521 600 35,000  Level FlightAware
11:03PM 42.0500 -72.0130 42° Northeast 520 598 35,000  Level FlightAware
11:03PM 42.1080 -71.9420 42° Northeast 519 597 35,000  Level FlightAware
11:06PM 42.3770 -71.6180 42° Northeast 520 598 35,000  Level FlightAware
11:06PM 42.4460 -71.5350 42° Northeast 521 600 35,000  Level FlightAware
11:07PM 42.5300 -71.4320 42° Northeast 526 605 35,000  Level FlightAware
11:08PM 42.6020 -71.3440 42° Northeast 528 608 35,000  Level FlightAware
11:08PM 42.6740 -71.2570 42° Northeast 531 611 35,000  Level FlightAware
11:09PM 42.7550 -71.1560 42° Northeast 532 612 35,000  Level FlightAware
11:10PM 42.8290 -71.0660 42° Northeast 535 616 35,000  Level FlightAware
11:11PM 42.9140 -70.9610 42° Northeast 537 618 35,000  Level FlightAware
11:11PM 42.9850 -70.8720 43° Northeast 539 620 35,000  Level FlightAware
11:12PM 43.0670 -70.7680 43° Northeast 542 624 35,000  Level FlightAware
11:13PM 43.1420 -70.6750 42° Northeast 545 627 35,000  Level FlightAware
11:13PM 43.2160 -70.5810 43° Northeast 547 629 35,000  Level FlightAware
11:14PM 43.3020 -70.4720 43° Northeast 550 633 35,000  Level FlightAware
11:15PM 43.3770 -70.3760 43° Northeast 553 636 35,000  Level FlightAware
11:16PM 43.4580 -70.2710 43° Northeast 554 638 35,000  Level FlightAware
11:16PM 43.5350 -70.1740 42° Northeast 557 641 35,000  Level FlightAware
11:17PM 43.6090 -70.0770 43° Northeast 558 642 35,000  Level FlightAware
11:18PM 43.6960 -69.9640 43° Northeast 560 644 35,000  Level FlightAware
11:18PM 43.7700 -69.8680 43° Northeast 563 648 35,000  Level FlightAware
11:19PM 43.8550 -69.7560 44° Northeast 565 650 35,000  Level FlightAware
11:20PM 43.9290 -69.6560 44° Northeast 566 651 35,000  Level FlightAware
11:20PM 44.0000 -69.5630 43° Northeast 564 649 35,000  Level FlightAware
11:21PM 44.0910 -69.4420 44° Northeast 551 634 35,000  Level FlightAware
11:22PM 44.1640 -69.3450 44° Northeast 546 628 35,000  Level FlightAware
11:23PM 44.2460 -69.2380 43° Northeast 544 626 35,000  Level FlightAware
11:23PM 44.3170 -69.1440 43° Northeast 543 625 35,000  Level FlightAware
11:24PM 44.3910 -69.0440 44° Northeast 543 625 35,000  Level FlightAware
11:25PM 44.4750 -68.9330 43° Northeast 544 626 35,000  Level FlightAware
11:25PM 44.5470 -68.8350 44° Northeast 544 626 35,000  Level FlightAware
11:26PM 44.6250 -68.7300 44° Northeast 544 626 35,000  Level FlightAware
11:27PM 44.6990 -68.6290 44° Northeast 545 627 35,000  Level FlightAware
11:27PM 44.7820 -68.5160 44° Northeast 544 626 35,000  Level FlightAware
11:28PM 44.8520 -68.4190 44° Northeast 545 627 35,000  Level FlightAware
11:29PM 44.9270 -68.3180 44° Northeast 537 618 35,000  Level FlightAware
11:30PM 45.0020 -68.2110 45° Northeast 527 606 35,000  Level FlightAware
11:30PM 45.0720 -68.1150 44° Northeast 524 603 35,000  Level FlightAware
11:31PM 45.1410 -68.0180 45° Northeast 523 602 35,000  Level FlightAware
11:32PM 45.2190 -67.9080 45° Northeast 523 602 35,000  Level FlightAware
11:32PM 45.2870 -67.8140 44° Northeast 523 602 35,000  Level FlightAware
11:33PM 45.3680 -67.7090 42° Northeast 526 605 35,000  Level FlightAware
11:34PM 45.4450 -67.6240 38° Northeast 527 606 35,000  Level FlightAware
11:34PM 45.5170 -67.5460 37° Northeast 527 606 35,000  Level FlightAware
11:35PM 45.6030 -67.4490 38° Northeast 529 609 35,000  Level FlightAware
11:36PM 45.6810 -67.3630 38° Northeast 529 609 35,000  Level FlightAware
11:37PM 45.7680 -67.2660 38° Northeast 531 611 35,000  Level FlightAware
11:37PM 45.8440 -67.1780 39° Northeast 531 611 35,000  Level FlightAware
11:38PM 45.9220 -67.0910 38° Northeast 530 610 35,000  Level FlightAware
11:39PM 45.9990 -67.0040 38° Northeast 512 589 35,000  Level FlightAware
11:39PM 46.0870 -66.9030 39° Northeast 508 585 35,000  Level FlightAware
11:40PM 46.1680 -66.8130 38° Northeast 505 581 35,000  Level FlightAware
11:41PM 46.2570 -66.7100 39° Northeast 504 580 35,000  Level FlightAware
11:42PM 46.3330 -66.6240 38° Northeast 504 580 35,000  Level FlightAware
11:42PM 46.3950 -66.5540 38° Northeast 504 580 35,000  Level FlightAware
11:43PM 46.5167 -66.3833 38° Northeast 500 575 35,000  Level Moncton Center
11:44PM 46.6167 -66.2667 39° Northeast 500 575 35,000  Level Moncton Center
11:45PM 46.7333 -66.1333 38° Northeast 510 587 35,000  Level Moncton Center
11:46PM 46.8333 -66.0167 39° Northeast 510 587 35,000  Level Moncton Center
11:47PM 46.9500 -65.8667 41° Northeast 510 587 35,000  Level Moncton Center
11:48PM 47.0667 -65.7500 34° Northeast 520 598 35,000  Level Moncton Center
11:49PM 47.1667 -65.6000 46° Northeast 520 598 35,000  Level Moncton Center
11:50PM 47.3000 -65.4667 34° Northeast 520 598 35,000  Level Moncton Center
11:51PM 47.4000 -65.3333 42° Northeast 520 598 35,000  Level Moncton Center
11:52PM 47.5167 -65.1833 41° Northeast 520 598 35,000  Level Moncton Center
11:53PM 47.6333 -65.0500 38° Northeast 530 610 35,000  Level Moncton Center
11:54PM 47.7500 -64.9000 41° Northeast 520 598 35,000  Level Moncton Center
11:55PM 47.8500 -64.7667 42° Northeast 520 598 35,000  Level Moncton Center
11:56PM 47.9667 -64.6167 41° Northeast 530 610 35,000  Level Moncton Center
11:57PM 48.0833 -64.5000 34° Northeast 530 610 35,000  Level Moncton Center
11:58PM 48.1833 -64.3500 45° Northeast 520 598 35,000  Level Moncton Center
11:59PM 48.3000 -64.2000 41° Northeast 520 598 35,000  Level Moncton Center
12:02AM 48.5084 -63.9381 40° Northeast  Level FlightAware Approximate
12:08AM 49.2167 -63.0000 41° Northeast 510 587 35,000  Level Gander Center
12:09AM 49.2593 -62.9543 41° Northeast  Level FlightAware Approximate
12:09AM 49.3167 -62.8667 41° Northeast 520 598 35,000  Level Gander Center
12:09AM 49.4000 -62.7500 42° Northeast 520 598 35,000  Level Moncton Center
12:10AM 49.3655 -62.8106 41° Northeast  Level FlightAware Approximate
12:10AM 49.5167 -62.6167 37° Northeast 510 587 35,000  Level Moncton Center
12:11AM 49.4715 -62.6662 41° Northeast  Level FlightAware Approximate
12:11AM 49.6167 -62.4667 44° Northeast 510 587 35,000  Level Moncton Center
12:12AM 49.5776 -62.5219 41° Northeast  Level FlightAware Approximate
12:12AM 49.6500 -62.4167 44° Northeast 520 598 35,000  Level Gander Center
12:13AM 49.6837 -62.3771 41° Northeast  Level FlightAware Approximate
12:13AM 49.7500 -62.2833 41° Northeast 510 587 35,000  Level Gander Center
12:14AM 49.8667 -62.1333 40° Northeast 520 598 35,000  Level Gander Center
12:15AM 49.9667 -61.9833 44° Northeast 520 598 35,000  Level Gander Center
12:15AM 50.0333 -61.8667 48° Northeast 520 598 35,000  Level Moncton Center
12:16AM 50.1500 -61.7000 42° Northeast 520 598 35,000  Level Moncton Center
12:17AM 50.2667 -61.5667 36° Northeast 520 598 35,000  Level Moncton Center
12:18AM 50.2833 -61.5167 62° Northeast 520 598 35,000  Level Gander Center
12:19AM 50.3833 -61.3667 44° Northeast 520 598 35,000  Level Gander Center
12:20AM 50.5000 -61.2333 36° Northeast 520 598 35,000  Level Gander Center
12:21AM 50.6000 -61.0667 47° Northeast 520 598 35,000  Level Gander Center
12:22AM 50.7167 -60.9167 39° Northeast 520 598 35,000  Level Gander Center
12:23AM 50.8167 -60.7500 46° Northeast 520 598 35,000  Level Gander Center
12:24AM 50.9167 -60.6000 43° Northeast 520 598 35,000  Level Gander Center
12:25AM 51.0167 -60.4500 43° Northeast 520 598 35,000  Level Gander Center
12:26AM 51.1333 -60.2667 45° Northeast 520 598 35,000  Level Gander Center
12:27AM 51.2333 -60.1333 40° Northeast 510 587 35,000  Level Gander Center
12:27AM 51.3167 -60.0000 45° Northeast 520 598 35,000  Level Moncton Center
12:28AM 51.4167 -59.8333 46° Northeast 510 587 35,000  Level Moncton Center
12:29AM 51.5167 -59.6833 43° Northeast 510 587 35,000  Level Moncton Center
12:30AM 51.6167 -59.5167 46° Northeast 500 575 35,000  Level Moncton Center
12:31AM 51.6667 -59.4833 22° Northeast 490 564 35,000  Level Gander Center
12:32AM 51.7667 -59.3333 43° Northeast 500 575 35,000  Level Gander Center
12:32AM 51.8167 -59.2167 55° Northeast 490 564 35,000  Level Moncton Center
12:33AM 51.8333 -59.1667 62° Northeast 490 564 35,000  Level Gander Center
12:33AM 51.9167 -59.0833 32° Northeast 480 552 35,000  Level Moncton Center
12:34AM 52.0167 -58.9000 48° Northeast 490 564 35,000  Level Moncton Center
12:35AM 52.0333 -58.8667 51° Northeast 490 564 35,000  Level Gander Center
12:36AM 52.1333 -58.7167 43° Northeast 490 564 35,000  Level Gander Center
12:37AM 52.2333 -58.5500 46° Northeast 490 564 35,000  Level Gander Center
12:38AM 52.3333 -58.4167 39° Northeast 490 564 35,000  Level Gander Center
12:39AM 52.4167 -58.2333 53° Northeast 490 564 35,000  Level Gander Center
12:40AM 52.5167 -58.1000 39° Northeast 490 564 35,000  Level Gander Center
12:41AM 52.6333 -57.9167 44° Northeast 490 564 35,000  Level Gander Center
12:41AM 52.7000 -57.8000 47° Northeast 500 575 35,000  Level Moncton Center
12:42AM 52.7167 -57.7833 31° Northeast 490 564 35,000  Level Gander Center
12:43AM 52.8000 -57.6000 53° Northeast 490 564 35,000  Level Gander Center
12:44AM 52.9167 -57.4500 38° Northeast 500 575 35,000  Level Gander Center
12:44AM 52.9833 -57.3333 46° Northeast 490 564 35,000  Level Moncton Center
12:45AM 53.0500 -57.1333 61° Northeast 500 575 35,000  Level Moncton Center
12:46AM 53.0833 -57.0833 42° Northeast 500 575 35,000  Level Gander Center
12:46AM 53.1333 -56.9500 58° Northeast 500 575 35,000  Level Moncton Center
12:47AM 53.2000 -56.7333 63° Northeast 500 575 35,000  Level Moncton Center
12:48AM 53.8667 -54.9667 67° East 507 583 35,000  Level ETMS Enhanced Traffic Management System
12:48AM 53.2667 -56.5333 67° East 500 575 35,000  Level Moncton Center
12:49AM 53.3500 -56.3500 53° Northeast 500 575 35,000  Level Moncton Center
12:50AM 53.3833 -56.2833 50° Northeast 490 564 35,000  Level Gander Center
12:50AM 53.4333 -56.1333 61° Northeast 490 564 35,000  Level Moncton Center
12:51AM 53.5000 -55.9500 59° Northeast 490 564 35,000  Level Moncton Center
12:52AM 53.5667 -55.7500 61° Northeast 490 564 35,000  Level Moncton Center
12:53AM 53.5833 -55.7000 61° Northeast 490 564 35,000  Level Gander Center
12:54AM 53.6667 -55.5167 52° Northeast 490 564 35,000  Level Gander Center
12:55AM 53.7167 -55.3167 67° East 490 564 35,000  Level Gander Center
12:56AM 53.7833 -55.1000 62° Northeast 490 564 35,000  Level Gander Center
12:57AM 53.8667 -54.9667 67° East 531 611 35,000  Level ETMS Enhanced Traffic Management System
12:57AM 53.8667 -54.9000 55° Northeast 510 587 35,000  Level Gander Center
12:58AM 53.9167 -54.6667 67° East 520 598 35,000  Level Gander Center
12:59AM 53.9667 -54.4500 69° East 530 610 35,000  Level Gander Center
01:00AM 54.0333 -54.1833 67° East 530 610 35,000  Level Gander Center
01:01AM 54.0833 -54.0000 65° Northeast 530 610 35,000  Level Gander Center
01:02AM 54.1167 -53.8000 74° East 530 610 35,000  Level Gander Center
01:03AM 54.1833 -53.5667 64° Northeast 530 610 35,000  Level Gander Center
01:04AM 54.2333 -53.3167 71° East 530 610 35,000  Level Gander Center
01:05AM 54.3000 -53.0833 64° Northeast 530 610 35,000  Level Gander Center
01:07AM 54.4133 -52.6567 65° Northeast  Level FlightAware Approximate
01:10AM 54.5667 -51.9333 69° East 530 610 35,000  Level Gander Center
01:11AM 54.6500 -51.6500 63° Northeast 530 610 35,000  Level Gander Center
01:12AM 54.6833 -51.4000 77° East 530 610 35,000  Level Gander Center
01:13AM 54.7333 -51.1500 71° East 530 610 35,000  Level Gander Center
01:14AM 54.7779 -51.0536 68° East  Level FlightAware Approximate
01:14AM 54.7833 -50.9167 70° East 530 610 35,000  Level Gander Center
01:15AM 54.8277 -50.8219 69° East  Level FlightAware Approximate
01:15AM 54.8333 -50.6667 71° East 530 610 35,000  Level Gander Center
01:16AM 54.9000 -50.4500 62° Northeast 530 610 35,000  Level Gander Center
01:17AM 54.9167 -50.2000 83° East 530 610 35,000  Level Gander Center
01:18AM 54.9500 -49.9833 75° East 530 610 35,000  Level Gander Center
01:20AM 55.0638 -49.5508 76° East  Level FlightAware Approximate
01:21AM 55.0000 -50.0000 76° East 544 626 35,000  Level ETMS Enhanced Traffic Management System
01:27AM 55.3099 -47.6805 78° East 544 626 35,000  Level FlightAware Transoceanic
01:28AM 55.3416 -47.4206 78° East 544 626 35,000  Level FlightAware Transoceanic
01:29AM 55.3727 -47.1603 78° East 544 626 35,000  Level FlightAware Transoceanic
01:30AM 55.4034 -46.8995 78° East 544 626 35,000  Level FlightAware Transoceanic
01:31AM 55.4334 -46.6384 79° East 544 626 35,000  Level FlightAware Transoceanic
01:32AM 55.4629 -46.3769 79° East 544 626 35,000  Level FlightAware Transoceanic
01:33AM 55.4918 -46.1150 79° East 544 626 35,000  Level FlightAware Transoceanic
01:34AM 55.5202 -45.8527 79° East 544 626 35,000  Level FlightAware Transoceanic
01:35AM 55.5480 -45.5901 80° East 544 626 35,000  Level FlightAware Transoceanic
01:36AM 55.5752 -45.3270 80° East 544 626 35,000  Level FlightAware Transoceanic
01:37AM 55.6019 -45.0636 80° East 544 626 35,000  Level FlightAware Transoceanic
01:38AM 55.6280 -44.7999 80° East 544 626 35,000  Level FlightAware Transoceanic
01:39AM 55.6535 -44.5358 80° East 544 626 35,000  Level FlightAware Transoceanic
01:40AM 55.6785 -44.2714 81° East 544 626 35,000  Level FlightAware Transoceanic
01:41AM 55.7029 -44.0066 81° East 544 626 35,000  Level FlightAware Transoceanic
01:42AM 55.7268 -43.7415 81° East 544 626 35,000  Level FlightAware Transoceanic
01:43AM 55.7500 -43.4761 81° East 544 626 35,000  Level FlightAware Transoceanic
01:44AM 55.7727 -43.2104 81° East 544 626 35,000  Level FlightAware Transoceanic
01:45AM 55.7948 -42.9444 82° East 544 626 35,000  Level FlightAware Transoceanic
01:46AM 55.8164 -42.6781 82° East 544 626 35,000  Level FlightAware Transoceanic
01:47AM 55.8374 -42.4114 82° East 544 626 35,000  Level FlightAware Transoceanic
01:48AM 55.8577 -42.1445 82° East 544 626 35,000  Level FlightAware Transoceanic
01:49AM 55.8776 -41.8773 83° East 544 626 35,000  Level FlightAware Transoceanic
01:50AM 55.8968 -41.6099 83° East 544 626 35,000  Level FlightAware Transoceanic
01:51AM 55.9155 -41.3422 83° East 544 626 35,000  Level FlightAware Transoceanic
01:52AM 55.9335 -41.0742 83° East 544 626 35,000  Level FlightAware Transoceanic
01:53AM 55.9510 -40.8060 83° East 544 626 35,000  Level FlightAware Transoceanic
01:54AM 55.9679 -40.5376 84° East 544 626 35,000  Level FlightAware Transoceanic
01:55AM 55.9843 -40.2689 84° East 544 626 35,000  Level FlightAware Transoceanic
01:56AM 55.9991 -40.0155 84° East  Level FlightAware Approximate
01:57AM 56.0135 -39.7618 84° East  Level FlightAware Approximate
01:58AM 56.0084 -39.7767 86° East  Level FlightAware Approximate
01:59AM 56.0174 -39.5222 86° East  Level FlightAware Approximate
02:00AM 56.0259 -39.2677 86° East  Level FlightAware Approximate
02:00AM 56.0000 -40.0000 86° East 558 642 35,000  Level ETMS Enhanced Traffic Management System
02:00AM 56.0000 -40.0000 86° East 558 642 35,000  Level ETMS Enhanced Traffic Management System
02:01AM 56.0339 -39.0130 87° East  Level FlightAware Approximate
02:02AM 56.0413 -38.7582 87° East  Level FlightAware Approximate
02:03AM 56.0482 -38.5033 87° East  Level FlightAware Approximate
02:04AM 56.0546 -38.2484 87° East  Level FlightAware Approximate
02:05AM 56.0605 -37.9933 88° East  Level FlightAware Approximate
02:06AM 56.0812 -37.2253 88° East 558 642 35,000  Level FlightAware Transoceanic
02:07AM 56.0859 -36.9473 88° East 558 642 35,000  Level FlightAware Transoceanic
02:08AM 56.0899 -36.6693 89° East 558 642 35,000  Level FlightAware Transoceanic
02:09AM 56.0934 -36.3911 89° East 558 642 35,000  Level FlightAware Transoceanic
02:10AM 56.0962 -36.1130 89° East 558 642 35,000  Level FlightAware Transoceanic
02:11AM 56.0984 -35.8348 89° East 558 642 35,000  Level FlightAware Transoceanic
02:12AM 56.0999 -35.5565 90° East 558 642 35,000  Level FlightAware Transoceanic
02:13AM 56.1009 -35.2783 90° East 558 642 35,000  Level FlightAware Transoceanic
02:14AM 56.1012 -35.0000 90° East 558 642 35,000  Level FlightAware Transoceanic
02:15AM 56.1009 -34.7217 90° East 558 642 35,000  Level FlightAware Transoceanic
02:16AM 56.0999 -34.4435 90° East 558 642 35,000  Level FlightAware Transoceanic
02:17AM 56.0984 -34.1652 91° East 558 642 35,000  Level FlightAware Transoceanic
02:18AM 56.0962 -33.8870 91° East 558 642 35,000  Level FlightAware Transoceanic
02:19AM 56.0934 -33.6089 91° East 558 642 35,000  Level FlightAware Transoceanic
02:20AM 56.0899 -33.3307 91° East 558 642 35,000  Level FlightAware Transoceanic
02:21AM 56.0859 -33.0527 92° East 558 642 35,000  Level FlightAware Transoceanic
02:22AM 56.0812 -32.7747 92° East 558 642 35,000  Level FlightAware Transoceanic
02:23AM 56.0759 -32.4967 92° East 558 642 35,000  Level FlightAware Transoceanic
02:24AM 56.0699 -32.2189 92° East 558 642 35,000  Level FlightAware Transoceanic
02:25AM 56.0634 -31.9411 93° East 558 642 35,000  Level FlightAware Transoceanic
02:26AM 56.0562 -31.6634 93° East 558 642 35,000  Level FlightAware Transoceanic
02:27AM 56.0484 -31.3859 93° East 558 642 35,000  Level FlightAware Transoceanic
02:28AM 56.0399 -31.1084 93° East 558 642 35,000  Level FlightAware Transoceanic
02:29AM 56.0309 -30.8311 93° East 558 642 35,000  Level FlightAware Transoceanic
02:30AM 56.0212 -30.5539 94° East 558 642 35,000  Level FlightAware Transoceanic
02:31AM 56.0109 -30.2769 94° East 558 642 35,000  Level FlightAware Transoceanic
02:32AM 56.0009 -30.0226 94° East  Level FlightAware Approximate
02:33AM 55.9904 -29.7684 94° East  Level FlightAware Approximate
02:34AM 56.0000 -30.0000 96° East 559 643 35,000  Level ETMS Enhanced Traffic Management System
02:34AM 55.9879 -29.7916 96° East  Level FlightAware Approximate
02:35AM 55.9726 -29.5383 96° East  Level FlightAware Approximate
02:36AM 55.9568 -29.2852 96° East  Level FlightAware Approximate
02:37AM 55.9406 -29.0323 96° East  Level FlightAware Approximate
02:38AM 55.9238 -28.7796 97° East  Level FlightAware Approximate
02:39AM 55.9064 -28.5272 97° East  Level FlightAware Approximate
02:40AM 55.8534 -27.7977 98° East 559 643 35,000  Level FlightAware Transoceanic
02:41AM 55.8323 -27.5237 98° East 559 643 35,000  Level FlightAware Transoceanic
02:42AM 55.8106 -27.2499 98° East 559 643 35,000  Level FlightAware Transoceanic
02:43AM 55.7883 -26.9765 98° East 559 643 35,000  Level FlightAware Transoceanic
02:44AM 55.7654 -26.7034 99° East 559 643 35,000  Level FlightAware Transoceanic
02:45AM 55.7419 -26.4306 99° East 559 643 35,000  Level FlightAware Transoceanic
02:46AM 55.7178 -26.1581 99° East 559 643 35,000  Level FlightAware Transoceanic
02:47AM 55.6931 -25.8860 99° East 559 643 35,000  Level FlightAware Transoceanic
02:48AM 55.6678 -25.6142 99° East 559 643 35,000  Level FlightAware Transoceanic
02:49AM 55.6419 -25.3428 100° East 559 643 35,000  Level FlightAware Transoceanic
02:50AM 55.6154 -25.0717 100° East 559 643 35,000  Level FlightAware Transoceanic
02:51AM 55.5882 -24.8011 100° East 559 643 35,000  Level FlightAware Transoceanic
02:52AM 55.5606 -24.5307 100° East 559 643 35,000  Level FlightAware Transoceanic
02:53AM 55.5322 -24.2608 101° East 559 643 35,000  Level FlightAware Transoceanic
02:54AM 55.5034 -23.9913 101° East 559 643 35,000  Level FlightAware Transoceanic
02:55AM 55.4739 -23.7222 101° East 559 643 35,000  Level FlightAware Transoceanic
02:56AM 55.4438 -23.4534 101° East 559 643 35,000  Level FlightAware Transoceanic
02:57AM 55.4132 -23.1851 101° East 559 643 35,000  Level FlightAware Transoceanic
02:58AM 55.3819 -22.9172 102° East 559 643 35,000  Level FlightAware Transoceanic
02:59AM 55.3501 -22.6498 102° East 559 643 35,000  Level FlightAware Transoceanic
03:00AM 55.3177 -22.3827 102° East 559 643 35,000  Level FlightAware Transoceanic
03:01AM 55.2847 -22.1161 102° East 559 643 35,000  Level FlightAware Transoceanic
03:02AM 55.2511 -21.8500 103° East 559 643 35,000  Level FlightAware Transoceanic
03:03AM 55.2169 -21.5843 103° East 559 643 35,000  Level FlightAware Transoceanic
03:04AM 55.1822 -21.3191 103° East 559 643 35,000  Level FlightAware Transoceanic
03:05AM 55.1469 -21.0543 103° East 559 643 35,000  Level FlightAware Transoceanic
03:06AM 55.1110 -20.7900 103° East 559 643 35,000  Level FlightAware Transoceanic
03:07AM 55.0746 -20.5262 104° East 559 643 35,000  Level FlightAware Transoceanic
03:08AM 55.0376 -20.2628 104° East 559 643 35,000  Level FlightAware Transoceanic
03:09AM 55.0031 -20.0216 104° East  Level FlightAware Approximate
03:10AM 54.9682 -19.7808 104° East  Level FlightAware Approximate
03:11AM 54.9755 -19.8007 102° East  Level FlightAware Approximate
03:12AM 54.9452 -19.5581 102° East  Level FlightAware Approximate
03:13AM 54.9144 -19.3159 102° East  Level FlightAware Approximate
03:14AM 54.8831 -19.0741 103° East  Level FlightAware Approximate
03:15AM 54.8514 -18.8326 103° East  Level FlightAware Approximate
03:16AM 54.8191 -18.5916 103° East  Level FlightAware Approximate
03:17AM 54.7864 -18.3509 103° East  Level FlightAware Approximate
03:18AM 54.7533 -18.1106 103° East  Level FlightAware Approximate
03:19AM 54.7196 -17.8707 104° East  Level FlightAware Approximate
03:20AM 54.6855 -17.6312 104° East  Level FlightAware Approximate
03:21AM 54.6509 -17.3921 104° East  Level FlightAware Approximate
03:22AM 54.6158 -17.1535 104° East  Level FlightAware Approximate
03:23AM 54.5803 -16.9152 104° East  Level FlightAware Approximate
03:24AM 54.5443 -16.6773 105° East  Level FlightAware Approximate
03:25AM 54.5078 -16.4399 105° East  Level FlightAware Approximate
03:26AM 54.4709 -16.2029 105° East  Level FlightAware Approximate
03:27AM 54.4335 -15.9664 105° East  Level FlightAware Approximate
03:28AM 54.3956 -15.7303 105° East  Level FlightAware Approximate
03:29AM 54.3573 -15.4946 105° East  Level FlightAware Approximate
03:30AM 54.3185 -15.2593 106° East  Level FlightAware Approximate
03:31AM 54.2793 -15.0245 106° East  Level FlightAware Approximate
03:32AM 54.2396 -14.7901 106° East  Level FlightAware Approximate
03:33AM 54.1995 -14.5562 106° East  Level FlightAware Approximate
03:33AM 53.9630 -14.2750 106° East 525 604 35,000  Level FlightAware
03:33AM 53.9440 -14.1230 102° East 522 601 35,000  Level FlightAware
03:34AM 53.9200 -13.9810 106° East 520 598 35,000  Level FlightAware
03:36AM 53.8720 -13.5738 101° East  Level Estimated
03:37AM 53.8435 -13.3371 101° East  Level Estimated
03:37AM 53.8020 -13.2940 101° East 518 596 35,000  Level FlightAware
03:38AM 53.7660 -13.0960 107° East 517 595 35,000  Level FlightAware
03:40AM 53.7116 -12.6516 102° East  Level Estimated
03:41AM 53.6820 -12.4161 102° East  Level Estimated
03:41AM 53.6190 -12.2740 102° East 511 588 35,000  Level FlightAware
03:42AM 53.5830 -12.0590 106° East 509 586 35,000  Level FlightAware
03:43AM 53.5560 -11.9030 106° East 511 588 35,000  Level FlightAware
03:43AM 53.5330 -11.7740 107° East 510 587 35,000  Level FlightAware
03:44AM 53.5010 -11.6010 107° East 506 582 35,000  Level FlightAware
03:45AM 53.4720 -11.4500 108° East 506 582 35,000  Level FlightAware
03:46AM 53.4400 -11.2810 108° East 505 581 35,000  Level FlightAware
03:46AM 53.4110 -11.1320 108° East 507 583 35,000  Level FlightAware
03:47AM 53.3810 -10.9790 108° East 506 582 35,000  Level FlightAware
03:48AM 53.3470 -10.8120 109° East 506 582 35,000  Level FlightAware
03:48AM 53.3130 -10.6450 109° East 507 583 35,000  Level FlightAware
03:49AM 53.2900 -10.5340 109° East 506 582 35,000  Level FlightAware
03:50AM 53.2590 -10.3870 109° East 504 580 35,000  Level FlightAware
03:50AM 53.2290 -10.2430 109° East 505 581 35,000  Level FlightAware
03:51AM 53.1970 -10.0910 109° East 507 583 35,000  Level FlightAware
03:51AM 53.1700 -9.9590 109° East 507 583 35,000  Level FlightAware
03:52AM 53.1360 -9.7970 109° East 501 577 35,000  Level FlightAware
03:53AM 53.1090 -9.6710 110° East 492 566 35,000  Level FlightAware
03:54AM 53.0740 -9.5080 110° East 487 560 35,000  Level FlightAware
03:54AM 53.0470 -9.3810 109° East 485 558 35,000 -600 Level FlightAware
03:56AM 52.9543 -8.9574 109° East 442 509 33,500  Descending FlightAware UK
03:56AM 52.9580 -8.9750 109° East 484 557 35,000  Climbing FlightAware
03:56AM 52.9399 -8.8935 109° East 442 509 33,500 -2,580 Descending FlightAware UK
03:57AM 52.9260 -8.8308 110° East 442 509 33,500 3,900 Level FlightAware UK
03:57AM 52.9260 -8.8350 110° East 484 557 35,000  Climbing FlightAware
03:57AM 52.9073 -8.7471 110° East 444 511 33,500  Descending FlightAware UK
03:57AM 52.8950 -8.6920 110° East 484 557 35,000  Climbing FlightAware
03:58AM 52.8793 -8.6215 110° East 448 516 33,500 -2,760 Descending FlightAware UK
03:58AM 52.8652 -8.5590 110° East 448 516 33,500 3,600 Level FlightAware UK
03:58AM 52.8640 -8.5530 110° East 483 556 35,000  Climbing FlightAware
03:58AM 52.8461 -8.4753 110° East 448 516 33,500 -2,580 Descending FlightAware UK
03:59AM 52.8318 -8.4130 111° Southeast 448 516 33,500 3,900 Level FlightAware UK
03:59AM 52.8310 -8.4100 111° Southeast 484 557 35,000  Climbing FlightAware
03:59AM 52.8125 -8.3288 111° Southeast 446 513 33,500  Descending FlightAware UK
03:59AM 52.8070 -8.3060 111° Southeast 484 557 35,000  Climbing FlightAware
04:00AM 52.7884 -8.2248 111° Southeast 444 511 33,500  Descending FlightAware UK
04:00AM 52.7790 -8.1840 111° Southeast 485 558 35,000  Climbing FlightAware
04:00AM 52.7596 -8.0996 111° Southeast 448 516 33,500  Descending FlightAware UK
04:00AM 52.7500 -8.0630 111° Southeast 488 562 35,000  Climbing FlightAware
04:01AM 52.7351 -7.9954 111° Southeast 446 513 33,500 -2,760 Descending FlightAware UK
04:01AM 52.7204 -7.9328 111° Southeast 446 513 33,500 3,600 Level FlightAware UK
04:01AM 52.7180 -7.9270 111° Southeast 489 563 35,000  Climbing FlightAware
04:01AM 52.7005 -7.8498 111° Southeast 444 511 33,500 -2,580 Descending FlightAware UK
04:02AM 52.6856 -7.7876 112° Southeast 444 511 33,500  Level FlightAware UK
04:02AM 52.6706 -7.7253 112° Southeast 446 513 33,500 4,500 Level FlightAware UK
04:02AM 52.6730 -7.7370 112° Southeast 488 562 35,000  Climbing FlightAware
04:02AM 52.6557 -7.6630 112° Southeast 448 516 33,500 -2,700 Descending FlightAware UK
04:03AM 52.6409 -7.6005 111° Southeast 448 516 33,500 3,060 Level FlightAware UK
04:03AM 52.6340 -7.5710 111° Southeast 488 562 35,000  Climbing FlightAware
04:03AM 52.6160 -7.4967 111° Southeast 448 516 33,500  Descending FlightAware UK
04:03AM 52.6060 -7.4530 111° Southeast 488 562 35,000 -540 Climbing FlightAware
04:04AM 52.5861 -7.3723 111° Southeast 444 511 33,200 -3,660 Descending FlightAware UK
04:04AM 52.5711 -7.3104 112° Southeast 446 513 32,700 3,300 Descending FlightAware UK
04:04AM 52.5720 -7.3160 112° Southeast 488 562 34,300 -1,380 Climbing FlightAware
04:04AM 52.5560 -7.2477 112° Southeast 446 513 32,300 -4,260 Descending FlightAware UK
04:05AM 52.5412 -7.1863 112° Southeast 448 516 31,900 2,700 Descending FlightAware UK
04:05AM 52.5390 -7.1780 112° Southeast 491 565 33,400 -1,260 Climbing FlightAware
04:05AM 52.5210 -7.1026 112° Southeast 448 516 31,400 -600 Descending FlightAware UK
04:05AM 52.5050 -7.0390 112° Southeast 491 565 33,000 120 Climbing FlightAware
04:06AM 52.4855 -6.9575 112° Southeast 448 516 31,500  Descending FlightAware UK
04:06AM 52.4810 -6.9430 112° Southeast 487 560 33,000  Climbing FlightAware
04:06AM 52.4601 -6.8540 112° Southeast 448 516 31,500 -2,400 Descending FlightAware UK
04:07AM 52.4449 -6.7919 112° Southeast 450 518 31,500 3,600 Level FlightAware UK
04:07AM 52.4420 -6.7810 112° Southeast 492 566 33,000  Climbing FlightAware
04:07AM 52.4245 -6.7091 112° Southeast 452 520 31,500 -2,580 Descending FlightAware UK
04:07AM 52.4090 -6.6468 112° Southeast 452 520 31,500 3,180 Level FlightAware UK
04:07AM 52.4030 -6.6210 112° Southeast 495 570 33,000  Climbing FlightAware
04:08AM 52.3831 -6.5428 112° Southeast 452 520 31,500 -2,400 Descending FlightAware UK
04:08AM 52.3675 -6.4804 112° Southeast 456 525 31,500 3,600 Level FlightAware UK
04:08AM 52.3640 -6.4690 112° Southeast 496 571 33,000  Climbing FlightAware
04:08AM 52.3465 -6.3971 112° Southeast 456 525 31,500  Descending FlightAware UK
04:09AM 52.3380 -6.3570 112° Southeast 495 570 33,000  Climbing FlightAware
04:09AM 52.3239 -6.2906 112° Southeast 454 522 31,500  Descending FlightAware UK
04:09AM 52.3120 -6.2370 112° Southeast 496 571 33,000  Climbing FlightAware
04:10AM 52.2962 -6.1635 112° Southeast 454 522 31,500  Descending FlightAware UK
04:10AM 52.2840 -6.1100 112° Southeast 497 572 33,000  Climbing FlightAware
04:10AM 52.2679 -6.0359 112° Southeast 454 522 31,500 -2,460 Descending FlightAware UK
04:10AM 52.2535 -5.9727 110° East 452 520 31,500 2,880 Level FlightAware UK
04:11AM 52.2440 -5.9340 110° East 498 573 33,000  Climbing FlightAware
04:11AM 52.2294 -5.8671 110° East 454 522 31,500 -2,580 Descending FlightAware UK
04:11AM 52.2149 -5.8038 110° East 454 522 31,500 3,180 Level FlightAware UK
04:11AM 52.2090 -5.7790 110° East 498 573 33,000  Climbing FlightAware
04:12AM 52.1907 -5.6984 110° East 456 525 31,500  Descending FlightAware UK
04:12AM 52.1760 -5.6390 110° East 498 573 33,000  Climbing FlightAware
04:12AM 52.1618 -5.5721 110° East 456 525 31,500 -2,700 Descending FlightAware UK
04:13AM 52.1474 -5.5089 110° East 456 525 31,500 3,060 Level FlightAware UK
04:13AM 52.1410 -5.4810 110° East 498 573 33,000  Climbing FlightAware
04:13AM 52.1229 -5.4039 110° East 454 522 31,500  Descending FlightAware UK
04:13AM 52.1160 -5.3760 110° East 497 572 33,000  Climbing FlightAware
04:14AM 52.0985 -5.2992 110° East 452 520 31,500  Descending FlightAware UK
04:14AM 52.0880 -5.2540 110° East 496 571 33,000  Climbing FlightAware
04:14AM 52.0691 -5.1730 110° East 454 522 31,500  Descending FlightAware UK
04:14AM 52.0580 -5.1280 110° East 495 570 33,000  Climbing FlightAware
04:15AM 52.0446 -5.0687 110° East 454 522 31,500 -2,760 Descending FlightAware UK
04:15AM 52.0299 -5.0062 111° Southeast 452 520 31,500 2,520 Level FlightAware UK
04:15AM 52.0180 -4.9550 111° Southeast 495 570 33,000  Climbing FlightAware
04:15AM 52.0150 -4.9438 111° Southeast 452 520 31,500 -4,740 Descending FlightAware UK
04:16AM 52.0003 -4.8815 111° Southeast 450 518 31,500  Level FlightAware UK
04:16AM 51.9856 -4.8193 111° Southeast 450 518 31,500 3,420 Level FlightAware UK
04:16AM 51.9820 -4.8030 111° Southeast 494 568 33,000  Climbing FlightAware
04:16AM 51.9657 -4.7365 111° Southeast 450 518 31,500  Descending FlightAware UK
04:17AM 51.9480 -4.6620 111° Southeast 493 567 33,000 1,500 Climbing FlightAware
04:17AM 51.9200 -4.5450 111° Southeast 492 566 33,000  Level FlightAware
04:18AM 51.8950 -4.4420 111° Southeast 492 566 33,000  Level FlightAware
04:18AM 51.8782 -4.3734 112° Southeast 492 566 33,000 -2,100 Level FlightAware ADS-B
04:19AM 51.8569 -4.2830 112° Southeast 452 520 31,500 -2,340 Descending FlightAware UK
04:19AM 51.8422 -4.2215 111° Southeast 452 520 31,300 1,920 Descending FlightAware UK
04:19AM 51.8330 -4.1860 111° Southeast 487 560 32,500 -2,220 Climbing FlightAware
04:19AM 51.8177 -4.1194 111° Southeast 448 516 30,200 -5,700 Descending FlightAware UK
04:20AM 51.8029 -4.0585 111° Southeast 448 516 29,200 2,280 Descending FlightAware UK
04:20AM 51.8050 -4.0700 111° Southeast 489 563 30,900 -4,020 Climbing FlightAware
04:20AM 51.7881 -3.9973 111° Southeast 450 518 28,000 -3,780 Descending FlightAware UK
04:20AM 51.7700 -3.9250 112° Southeast 503 579 28,400 -2,760 Climbing FlightAware
04:20AM 51.7671 -3.9126 112° Southeast 456 525 26,900 -1,200 Descending FlightAware UK
04:21AM 51.7360 -3.7870 112° Southeast 492 566 27,600 -1,140 Climbing FlightAware
04:21AM 51.7163 -3.7076 112° Southeast 428 493 25,800 -3,000 Descending FlightAware UK
04:22AM 51.7015 -3.6489 112° Southeast 418 481 25,600 3,360 Descending FlightAware UK
04:22AM 51.6990 -3.6410 112° Southeast 467 537 27,100 -1,020 Climbing FlightAware
04:22AM 51.6635 -3.4976 112° Southeast 398 458 24,800 -1,020 Descending FlightAware UK
04:23AM 51.6570 -3.4720 112° Southeast 447 514 26,200 -1,440 Climbing FlightAware
04:23AM 51.6402 -3.4054 112° Southeast 394 453 24,100 -4,020 Descending FlightAware UK
04:23AM 51.6214 -3.3313 112° Southeast 390 449 23,400 1,980 Descending FlightAware UK
04:23AM 51.6210 -3.3310 112° Southeast 442 509 25,000 3,420 Climbing FlightAware
04:24AM 51.6097 -3.2751 108° East 439 505 24,500 -1,680 Descending FlightAware ADS-B
04:24AM 51.5924 -3.1562 103° East 431 496 23,500 -3,300 Descending FlightAware ADS-B
04:25AM 51.5863 -3.1071 103° East 380 437 21,600 -4,200 Descending FlightAware UK
04:25AM 51.5789 -3.0513 102° East 380 437 21,200 1,980 Descending FlightAware UK
04:25AM 51.5754 -3.0261 102° East 424 488 22,500 -1,500 Climbing FlightAware ADS-B
04:25AM 51.5694 -2.9773 102° East 376 433 20,600 -1,320 Descending FlightAware UK
04:26AM 51.5624 -2.9252 102° East 418 481 21,800 -1,200 Climbing FlightAware ADS-B
04:26AM 51.5548 -2.8678 102° East 370 426 19,900 -1,320 Descending FlightAware UK
04:26AM 51.5491 -2.8259 102° East 415 478 21,100 -1,440 Climbing FlightAware ADS-B
04:26AM 51.5427 -2.7783 102° East 368 423 19,200 -1,200 Descending FlightAware UK
04:27AM 51.5369 -2.7341 102° East 405 466 20,500 -1,020 Climbing FlightAware ADS-B
04:27AM 51.5287 -2.6730 102° East 364 419 18,600 -1,020 Descending FlightAware UK
04:27AM 51.5251 -2.6473 102° East 403 464 20,000 -1,020 Climbing FlightAware ADS-B
04:27AM 51.5168 -2.5870 102° East 360 414 18,100 -1,080 Descending FlightAware UK
04:28AM 51.5116 -2.5508 102° East 390 449 19,400 1,080 Climbing FlightAware ADS-B
04:28AM 51.4995 -2.4660 103° East 390 449 18,900 -2,820 Descending FlightAware ADS-B
04:29AM 51.4906 -2.4014 103° East 354 407 17,000 -960 Descending FlightAware UK
04:29AM 51.4820 -2.3427 103° East 386 444 18,200 -900 Climbing FlightAware ADS-B
04:29AM 51.4737 -2.2837 103° East 352 405 16,400 -960 Descending FlightAware UK
04:29AM 51.4691 -2.2512 103° East 384 442 17,700 -1,020 Climbing FlightAware ADS-B
04:30AM 51.4619 -2.2008 103° East 348 400 15,900 -1,020 Descending FlightAware UK
04:30AM 51.4573 -2.1681 103° East 384 442 17,200 -1,020 Climbing FlightAware ADS-B
04:30AM 51.4503 -2.1178 103° East 348 400 15,400 -780 Descending FlightAware UK
04:30AM 51.4452 -2.0825 103° East 381 438 16,800 -840 Climbing FlightAware ADS-B
04:31AM 51.4386 -2.0351 103° East 344 396 15,000 -960 Descending FlightAware UK
04:31AM 51.4328 -1.9948 103° East 379 436 16,300 -1,020 Climbing FlightAware ADS-B
04:31AM 51.4270 -1.9524 103° East 342 394 14,500 -840 Descending FlightAware UK
04:31AM 51.4209 -1.9128 103° East 379 436 15,900 -1,020 Climbing FlightAware ADS-B
04:32AM 51.4151 -1.8708 103° East 340 391 14,000 -1,020 Descending FlightAware UK
04:32AM 51.4090 -1.8282 103° East 377 434 15,400 -720 Climbing FlightAware ADS-B
04:32AM 51.4011 -1.7729 103° East 338 389 13,600 -780 Descending FlightAware UK
04:33AM 51.3966 -1.7418 103° East 372 428 15,000 -600 Climbing FlightAware ADS-B
04:33AM 51.3894 -1.6925 103° East 336 387 13,300 -840 Descending FlightAware UK
04:33AM 51.3847 -1.6624 103° East 362 417 14,600 1,380 Climbing FlightAware ADS-B
04:34AM 51.3733 -1.5841 103° East 341 392 14,300 -2,460 Descending FlightAware ADS-B
04:34AM 51.3652 -1.5272 103° East 302 348 12,400 -600 Descending FlightAware UK
04:34AM 51.3624 -1.5095 103° East 332 382 14,000 240 Climbing FlightAware ADS-B
04:34AM 51.3566 -1.4699 103° East 306 352 12,500  Descending FlightAware UK
04:35AM 51.3514 -1.4373 103° East 336 387 14,000 1,980 Climbing FlightAware ADS-B
04:35AM 51.3402 -1.3625 103° East 337 388 14,000 -1,980 Level FlightAware ADS-B
04:35AM 51.3348 -1.3246 103° East 308 354 12,500  Descending FlightAware UK
04:36AM 51.3289 -1.2868 103° East 342 394 14,000 1,920 Climbing FlightAware ADS-B
04:36AM 51.3177 -1.2134 104° East 342 394 14,000  Level FlightAware ADS-B
04:36AM 51.3144 -1.1887 102° East 340 391 14,000  Level FlightAware ADS-B
04:36AM 51.3128 -1.1688 97° East 338 389 14,000  Level FlightAware ADS-B
04:37AM 51.3111 -1.1319 94° East 334 384 14,000  Level FlightAware ADS-B
04:37AM 51.3103 -1.0533 91° East 333 383 14,000 -2,220 Level FlightAware ADS-B
04:37AM 51.3099 -1.0141 91° East 302 348 12,300 -780 Descending FlightAware UK
04:38AM 51.3094 -0.9809 91° East 319 367 13,600 1,440 Climbing FlightAware ADS-B
04:38AM 51.3088 -0.9127 91° East 300 345 13,400 -2,700 Descending FlightAware ADS-B
04:38AM 51.3083 -0.8773 91° East 270 311 11,600 -1,020 Descending FlightAware UK
04:39AM 51.3079 -0.8457 91° East 287 330 12,900 -1,200 Climbing FlightAware ADS-B
04:39AM 51.3073 -0.8015 91° East 264 304 10,900 -1,440 Descending FlightAware UK
04:39AM 51.3073 -0.7889 91° East 283 326 12,300 2,340 Climbing FlightAware ADS-B
04:40AM 51.3070 -0.7452 91° East 278 320 12,000 -420 Descending FlightAware ADS-B
04:40AM 51.3069 -0.6978 90° East 280 322 12,000  Level FlightAware ADS-B
04:40AM 51.3066 -0.6355 90° East 283 326 12,000 -1,800 Level FlightAware ADS-B
04:41AM 51.3063 -0.5893 90° East 264 304 10,500  Descending FlightAware UK
04:41AM 51.3059 -0.5702 90° East 284 327 12,000 2,880 Climbing FlightAware ADS-B
04:41AM 51.3050 -0.5265 92° East 282 325 12,000 -240 Level FlightAware ADS-B
04:42AM 51.3037 -0.4640 92° East 281 323 11,800 -480 Descending FlightAware ADS-B
04:42AM 51.3036 -0.4435 90° East 278 320 11,700 -900 Descending FlightAware ADS-B
04:42AM 51.3045 -0.4352 80° East 276 318 11,600 -1,200 Descending FlightAware ADS-B
04:42AM 51.3065 -0.4256 72° East 272 313 11,500 -780 Descending FlightAware ADS-B
04:42AM 51.3082 -0.4201 64° Northeast 268 308 11,500 -1,020 Level FlightAware ADS-B
04:42AM 51.3102 -0.4150 58° Northeast 266 306 11,400 -1,380 Descending FlightAware ADS-B
04:42AM 51.3145 -0.4059 53° Northeast 261 300 11,300 -1,440 Descending FlightAware ADS-B
04:42AM 51.3211 -0.3977 38° Northeast 254 292 11,100 -1,500 Descending FlightAware ADS-B
04:42AM 51.3262 -0.3935 27° Northeast 248 285 11,000 -1,200 Descending FlightAware ADS-B
04:43AM 51.3586 -0.3750 20° North 244 281 10,400 -1,260 Descending FlightAware ADS-B
04:43AM 51.3783 -0.3630 21° North 242 278 10,000 -1,320 Descending FlightAware ADS-B
04:43AM 51.3827 -0.3604 20° North 244 281 9,900 -1,380 Descending FlightAware ADS-B
04:43AM 51.3884 -0.3566 23° Northeast 246 283 9,800 -1,380 Descending FlightAware ADS-B
04:44AM 51.3918 -0.3529 34° Northeast 248 285 9,700 -1,500 Descending FlightAware ADS-B
04:44AM 51.3957 -0.3483 36° Northeast 250 288 9,600 -1,380 Descending FlightAware ADS-B
04:44AM 51.3995 -0.3417 47° Northeast 252 290 9,500 -1,500 Descending FlightAware ADS-B
04:44AM 51.4020 -0.3371 49° Northeast 254 292 9,400 -1,740 Descending FlightAware ADS-B
04:44AM 51.4041 -0.3307 62° Northeast 257 296 9,300 -1,380 Descending FlightAware ADS-B
04:44AM 51.4067 -0.3219 65° Northeast 261 300 9,200 -1,380 Descending FlightAware ADS-B
04:44AM 51.4081 -0.3144 73° East 263 303 9,100 -1,740 Descending FlightAware ADS-B
04:44AM 51.4088 -0.3088 79° East 265 305 9,000 -1,740 Descending FlightAware ADS-B
04:44AM 51.4091 -0.3009 86° East 266 306 8,900 -1,740 Descending FlightAware ADS-B
04:44AM 51.4090 -0.2948 91° East 266 306 8,800 -1,500 Descending FlightAware ADS-B
04:44AM 51.4081 -0.2850 98° East 267 307 8,700 -1,380 Descending FlightAware ADS-B
04:44AM 51.4065 -0.2755 105° East 266 306 8,600 -780 Descending FlightAware ADS-B
04:44AM 51.4052 -0.2699 110° East 265 305 8,600 -960 Level FlightAware ADS-B
04:44AM 51.4009 -0.2535 113° Southeast 264 304 8,400 -1,380 Descending FlightAware ADS-B
04:45AM 51.3960 -0.2376 116° Southeast 264 304 8,200 -1,200 Descending FlightAware ADS-B
04:45AM 51.3900 -0.2184 117° Southeast 264 304 8,000 -1,440 Descending FlightAware ADS-B
04:45AM 51.3815 -0.1922 117° Southeast 267 307 7,600 -1,620 Descending FlightAware ADS-B
04:45AM 51.3731 -0.1658 117° Southeast 267 307 7,200 -1,380 Descending FlightAware ADS-B
04:45AM 51.3695 -0.1534 115° Southeast 265 305 7,100 -600 Descending FlightAware ADS-B
04:45AM 51.3680 -0.1481 114° Southeast 263 303 7,100 -900 Level FlightAware ADS-B
04:46AM 51.3667 -0.1408 106° East 262 302 7,000 -900 Descending FlightAware ADS-B
04:46AM 51.3657 -0.1352 106° East 261 300 7,000 -1,020 Level FlightAware ADS-B
04:46AM 51.3650 -0.1294 101° East 260 299 6,900 -1,380 Descending FlightAware ADS-B
04:46AM 51.3648 -0.1180 92° East 258 297 6,800 -1,020 Descending FlightAware ADS-B
04:46AM 51.3656 -0.1066 84° East 255 293 6,700 -1,200 Descending FlightAware ADS-B
04:46AM 51.3690 -0.0809 78° East 252 290 6,400 -1,080 Descending FlightAware ADS-B
04:46AM 51.3736 -0.0540 75° East 249 287 6,200 -1,080 Descending FlightAware ADS-B
04:47AM 51.3793 -0.0201 75° East 251 289 5,800 -1,380 Descending FlightAware ADS-B
04:47AM 51.3833 0.0032 75° East 252 290 5,500 -1,500 Descending FlightAware ADS-B
04:47AM 51.3886 0.0217 65° Northeast 247 284 5,200 -1,500 Descending FlightAware ADS-B
04:47AM 51.3920 0.0274 46° Northeast 242 278 5,100 -780 Descending FlightAware ADS-B
04:47AM 51.3951 0.0324 45° Northeast 237 273 5,100  Level FlightAware ADS-B
04:47AM 51.4016 0.0401 36° Northeast 228 262 5,100 -600 Level FlightAware ADS-B
04:47AM 51.4045 0.0422 24° Northeast 218 251 5,000 -900 Descending FlightAware ADS-B
04:47AM 51.4086 0.0442 17° North 213 245 5,000  Level FlightAware ADS-B
04:47AM 51.4115 0.0451 12° North 209 241 5,000 -720 Level FlightAware ADS-B
04:48AM 51.4168 0.0463 North 206 237 4,900 -1,080 Descending FlightAware ADS-B
04:48AM 51.4272 0.0455 357° North 199 229 4,700 -1,020 Descending FlightAware ADS-B
04:48AM 51.4326 0.0419 337° Northwest 184 212 4,600 -720 Descending FlightAware ADS-B
04:48AM 51.4387 0.0336 319° Northwest 174 200 4,500 -540 Descending FlightAware ADS-B
04:48AM 51.4459 0.0201 311° West 169 194 4,400 -600 Descending FlightAware ADS-B
04:49AM 51.4547 0.0012 307° West 169 194 4,200 -540 Descending FlightAware ADS-B
04:49AM 51.4621 -0.0140 308° West 170 196 4,100 -540 Descending FlightAware ADS-B
04:49AM 51.4722 -0.0362 306° West 169 194 3,900 -600 Descending FlightAware ADS-B
04:50AM 51.4770 -0.0601 288° West 169 194 3,700 -480 Descending FlightAware ADS-B
04:50AM 51.4774 -0.0678 275° West 175 201 3,700 -540 Level FlightAware ADS-B
04:50AM 51.4777 -0.0900 271° West 172 198 3,500 -540 Descending FlightAware ADS-B
04:50AM 51.4782 -0.1140 272° West 172 198 3,400 -480 Descending FlightAware ADS-B
04:51AM 51.4785 -0.1551 271° West 171 197 3,100 -540 Descending FlightAware ADS-B
04:51AM 51.4784 -0.1757 270° West 172 198 3,000 -360 Descending FlightAware ADS-B
04:51AM 51.4782 -0.1995 269° West 168 193 2,900 -540 Descending FlightAware ADS-B
04:52AM 51.4781 -0.2229 270° West 164 189 2,700 -840 Descending FlightAware ADS-B
04:52AM 51.4781 -0.2459 270° West 164 189 2,400 -1,020 Descending FlightAware ADS-B
04:52AM 51.4780 -0.2724 270° West 153 176 2,000 -900 Descending FlightAware ADS-B
04:53AM 51.4780 -0.3140 270° West 146 168 1,500 -720 Descending FlightAware
04:54AM 51.4780 -0.3460 270° West 125 144 1,100 -720 Descending FlightAware
04:54AM 51.4780 -0.3740 270° West 131 151 800 -840 Descending FlightAware
04:54AM 51.4780 -0.3940 270° West 125 144 500 -600 Descending FlightAware
04:55AM 51.4780 -0.4210 270° West 129 148 200 -420 Descending FlightAware